Time;durP1;ratioP1;P1;durP2;ratioP2;P2;SDS_P1;SDS_P2;PMS_P1;PMS_P2;Temp;Humidity;BMP_temperature;BMP_pressure;BME280_temperature;BME280_humidity;BME280_pressure;Samples;Min_cycle;Max_cycle;Signal;HPM_P1;HPM_P2
2021/03/07 00:02:40;;;;;;;9.88;5.18;;;0.80;99.90;;;;;;12455459;28;20038;-82
2021/03/07 00:08:41;;;;;;;8.93;6.00;;;0.60;99.90;;;;;;12458197;28;20045;-82
2021/03/07 00:14:54;;;;;;;9.85;6.45;;;0.60;99.90;;;;;;12451003;28;20099;-82
2021/03/07 00:20:55;;;;;;;11.93;6.55;;;0.70;99.90;;;;;;12461483;28;20113;-82
2021/03/07 00:26:56;;;;;;;14.40;6.32;;;0.60;99.90;;;;;;12476800;28;20069;-81
2021/03/07 00:32:57;;;;;;;9.30;5.95;;;0.60;99.90;;;;;;12446790;28;20061;-81
2021/03/07 00:38:59;;;;;;;11.50;6.18;;;0.50;99.90;;;;;;12450138;28;20049;-82
2021/03/07 00:45:17;;;;;;;7.93;5.37;;;0.40;99.90;;;;;;12456750;28;20516;-81
2021/03/07 00:51:18;;;;;;;11.40;6.60;;;0.30;99.90;;;;;;12443188;28;20136;-82
2021/03/07 00:57:19;;;;;;;11.32;6.60;;;0.30;99.90;;;;;;12443783;28;20080;-81
2021/03/07 01:03:20;;;;;;;12.55;6.90;;;0.30;99.90;;;;;;12447207;28;20287;-82
2021/03/07 01:09:22;;;;;;;10.70;7.10;;;0.20;99.90;;;;;;12446310;28;20190;-81
2021/03/07 01:15:36;;;;;;;13.63;7.68;;;0.20;99.90;;;;;;12449031;28;20065;-81
2021/03/07 01:21:38;;;;;;;12.15;8.20;;;0.10;99.90;;;;;;12459963;28;20051;-81
2021/03/07 01:27:39;;;;;;;11.38;7.75;;;0.10;99.90;;;;;;12450752;28;20180;-82
2021/03/07 01:33:41;;;;;;;11.55;7.88;;;0.30;99.90;;;;;;12447231;28;20125;-82
2021/03/07 01:39:42;;;;;;;12.98;7.80;;;0.30;99.90;;;;;;12445275;28;20525;-81
2021/03/07 01:45:56;;;;;;;13.30;7.88;;;0.40;99.90;;;;;;12455290;28;20057;-82
2021/03/07 01:51:57;;;;;;;15.10;9.20;;;0.50;99.90;;;;;;12453413;28;20713;-82
2021/03/07 01:58:04;;;;;;;14.75;9.68;;;0.80;99.90;;;;;;12459015;28;20128;-82
2021/03/07 02:04:06;;;;;;;16.13;10.10;;;1.10;99.90;;;;;;12465909;28;20423;-82
2021/03/07 02:10:10;;;;;;;14.45;9.40;;;1.20;99.90;;;;;;12472036;28;20119;-80
2021/03/07 02:16:23;;;;;;;15.43;9.85;;;1.20;99.90;;;;;;12446515;28;20053;-82
2021/03/07 02:22:33;;;;;;;14.27;8.82;;;1.20;99.90;;;;;;12442972;28;20057;-82
2021/03/07 02:28:35;;;;;;;14.32;9.05;;;1.30;99.90;;;;;;12444879;28;20054;-82
2021/03/07 02:34:57;;;;;;;14.82;9.00;;;1.30;99.90;;;;;;12445277;28;20092;-82
2021/03/07 02:40:59;;;;;;;13.30;8.23;;;1.40;99.90;;;;;;12438313;28;20076;-82
2021/03/07 02:47:01;;;;;;;13.68;7.97;;;1.50;99.90;;;;;;12446855;28;20042;-82
2021/03/07 02:53:07;;;;;;;12.82;7.55;;;1.40;99.90;;;;;;12435907;28;20406;-82
2021/03/07 02:59:12;;;;;;;15.43;7.80;;;1.30;99.90;;;;;;12455069;28;20078;-82
2021/03/07 03:05:15;;;;;;;13.25;7.70;;;1.30;99.90;;;;;;12437297;28;20136;-82
2021/03/07 03:11:20;;;;;;;14.52;7.45;;;1.30;99.90;;;;;;12446344;28;20069;-82
2021/03/07 03:17:24;;;;;;;13.75;7.63;;;1.20;99.90;;;;;;12442146;28;20604;-82
2021/03/07 03:23:26;;;;;;;12.35;7.13;;;1.10;99.90;;;;;;12445098;28;20045;-82
2021/03/07 03:29:32;;;;;;;13.27;6.65;;;1.00;99.90;;;;;;12459910;28;20148;-82
2021/03/07 03:35:33;;;;;;;14.60;7.10;;;0.90;99.90;;;;;;12451902;28;20049;-82
2021/03/07 03:41:35;;;;;;;13.40;7.15;;;0.90;99.90;;;;;;12454245;28;20283;-82
2021/03/07 03:47:41;;;;;;;12.52;7.30;;;0.90;99.90;;;;;;12446556;28;20135;-82
2021/03/07 03:53:43;;;;;;;13.85;6.75;;;0.80;99.90;;;;;;12454925;28;20571;-82
2021/03/07 03:59:46;;;;;;;13.75;7.85;;;0.70;99.90;;;;;;12449196;28;20080;-82
2021/03/07 04:05:49;;;;;;;14.43;8.27;;;0.60;99.90;;;;;;12441484;28;20073;-82
2021/03/07 04:11:52;;;;;;;20.13;7.77;;;0.60;99.90;;;;;;12444308;28;20046;-82
2021/03/07 04:17:54;;;;;;;16.77;7.43;;;0.60;99.90;;;;;;12441583;28;20081;-82
2021/03/07 04:23:56;;;;;;;22.70;7.68;;;0.60;99.90;;;;;;12454296;28;20037;-82
2021/03/07 04:29:58;;;;;;;10.65;5.93;;;0.60;99.90;;;;;;12451129;28;20054;-82
2021/03/07 04:36:02;;;;;;;12.98;5.68;;;0.60;99.90;;;;;;12454093;28;20094;-82
2021/03/07 04:42:04;;;;;;;10.30;5.80;;;0.70;99.90;;;;;;12442872;28;20095;-82
2021/03/07 04:48:12;;;;;;;12.90;5.97;;;0.70;99.90;;;;;;12466570;28;20100;-82
2021/03/07 04:54:14;;;;;;;11.02;5.35;;;0.70;99.90;;;;;;12451812;28;20050;-82
2021/03/07 05:00:17;;;;;;;10.18;5.38;;;0.80;99.90;;;;;;12463515;28;20081;-82
2021/03/07 05:06:25;;;;;;;14.07;5.70;;;0.80;99.90;;;;;;12448890;28;20072;-82
2021/03/07 05:12:27;;;;;;;12.20;5.80;;;0.80;99.90;;;;;;12452043;28;20091;-82
2021/03/07 05:18:38;;;;;;;10.13;6.10;;;0.90;99.90;;;;;;12452093;28;20053;-82
2021/03/07 05:24:39;;;;;;;10.55;6.03;;;0.90;99.90;;;;;;12454248;28;20145;-82
2021/03/07 05:30:41;;;;;;;17.17;6.55;;;1.10;99.90;;;;;;12447688;28;20440;-82
2021/03/07 05:36:42;;;;;;;12.43;6.10;;;1.00;99.90;;;;;;12463915;28;20132;-82
2021/03/07 05:42:44;;;;;;;12.05;6.57;;;0.90;99.90;;;;;;12450542;28;20105;-82
2021/03/07 05:48:57;;;;;;;9.75;6.07;;;0.80;99.90;;;;;;12455983;28;20048;-82
2021/03/07 05:54:59;;;;;;;10.27;6.20;;;0.90;99.90;;;;;;12464592;28;20050;-83
2021/03/07 06:01:01;;;;;;;11.68;6.88;;;1.10;99.90;;;;;;12440662;28;20124;-84
2021/03/07 06:07:03;;;;;;;11.77;7.13;;;1.20;99.90;;;;;;12448064;28;20080;-84
2021/03/07 06:13:10;;;;;;;13.27;7.32;;;1.10;99.90;;;;;;12443304;28;20135;-83
2021/03/07 06:19:27;;;;;;;12.50;7.60;;;1.30;99.90;;;;;;12449189;28;20147;-83
2021/03/07 06:25:29;;;;;;;13.68;7.90;;;1.30;99.90;;;;;;12442604;28;20465;-83
2021/03/07 06:31:31;;;;;;;16.42;8.38;;;1.30;99.90;;;;;;12447318;28;20462;-83
2021/03/07 06:37:33;;;;;;;18.90;10.07;;;1.40;99.90;;;;;;12447789;28;20042;-83
2021/03/07 06:43:36;;;;;;;13.77;8.40;;;1.60;99.90;;;;;;12449352;28;20045;-84
2021/03/07 06:49:42;;;;;;;15.80;8.05;;;1.60;99.90;;;;;;12471631;28;20117;-84
2021/03/07 06:55:44;;;;;;;19.38;8.02;;;1.60;99.90;;;;;;12472819;28;20141;-83
2021/03/07 07:01:47;;;;;;;13.38;6.97;;;1.50;99.90;;;;;;12473312;28;20099;-83
2021/03/07 07:07:48;;;;;;;10.05;6.10;;;1.60;99.90;;;;;;12439963;28;20541;-83
2021/03/07 07:13:52;;;;;;;10.05;6.70;;;1.40;99.90;;;;;;12457774;28;20038;-83
2021/03/07 07:20:09;;;;;;;9.50;5.30;;;1.50;99.90;;;;;;12444733;28;20112;-83
2021/03/07 07:26:11;;;;;;;19.33;6.63;;;1.50;99.90;;;;;;12435062;28;20135;-83
2021/03/07 07:32:31;;;;;;;11.63;5.82;;;1.60;99.90;;;;;;12445319;28;20068;-83
2021/03/07 07:38:33;;;;;;;11.65;5.60;;;1.90;99.90;;;;;;12430527;28;20737;-83
2021/03/07 07:44:37;;;;;;;10.20;5.73;;;1.90;99.90;;;;;;12438926;28;20057;-83
2021/03/07 07:50:40;;;;;;;10.85;5.47;;;2.00;99.90;;;;;;12441303;28;20057;-83
2021/03/07 07:56:43;;;;;;;8.10;4.35;;;2.00;99.90;;;;;;12444294;28;20080;-83
2021/03/07 08:02:57;;;;;;;8.63;4.90;;;2.40;99.90;;;;;;12448027;28;20045;-83
2021/03/07 08:08:59;;;;;;;;;;;2.40;99.90;;;;;;12450848;28;20038;-83
2021/03/07 08:15:01;;;;;;;7.88;3.47;;;2.60;99.90;;;;;;12464082;28;20020;-83
2021/03/07 08:21:03;;;;;;;9.10;4.57;;;2.80;99.90;;;;;;12469781;28;20038;-83
2021/03/07 08:27:05;;;;;;;10.30;4.20;;;2.80;99.90;;;;;;12454377;28;20497;-83
2021/03/07 08:33:33;;;;;;;7.57;4.50;;;3.00;99.90;;;;;;12471802;28;20080;-83
2021/03/07 08:39:36;;;;;;;7.07;3.97;;;2.90;99.90;;;;;;12476918;28;20808;-83
2021/03/07 08:45:59;;;;;;;9.38;3.90;;;3.00;99.90;;;;;;12452888;28;20053;-84
2021/03/07 08:52:05;;;;;;;7.60;3.75;;;3.10;99.90;;;;;;12453184;28;20038;-83
2021/03/07 08:58:08;;;;;;;7.13;3.55;;;3.10;99.90;;;;;;12450047;28;20041;-83
2021/03/07 09:04:11;;;;;;;8.95;3.60;;;3.20;99.90;;;;;;12451317;28;20073;-83
2021/03/07 09:10:12;;;;;;;6.90;3.90;;;3.30;99.90;;;;;;12445292;28;20141;-83
2021/03/07 09:16:18;;;;;;;6.05;3.50;;;3.30;99.90;;;;;;12465630;28;20049;-83
2021/03/07 09:22:24;;;;;;;10.25;3.40;;;3.30;99.90;;;;;;12449452;28;20394;-83
2021/03/07 09:28:35;;;;;;;6.38;3.55;;;3.20;99.90;;;;;;12446704;28;20112;-83
2021/03/07 09:34:36;;;;;;;8.40;3.75;;;3.40;99.90;;;;;;12450543;28;20040;-83
2021/03/07 09:40:41;;;;;;;7.03;4.20;;;3.40;99.90;;;;;;12449691;28;20054;-83
2021/03/07 09:46:44;;;;;;;7.45;2.85;;;3.60;99.90;;;;;;12449529;28;20050;-83
2021/03/07 09:52:45;;;;;;;5.63;2.60;;;3.80;99.90;;;;;;12451428;28;20531;-83
2021/03/07 09:58:47;;;;;;;5.82;1.70;;;3.90;99.90;;;;;;12449147;28;20061;-83
2021/03/07 10:04:51;;;;;;;4.15;2.03;;;3.90;99.90;;;;;;12448283;28;20054;-83
2021/03/07 10:11:07;;;;;;;4.25;1.40;;;4.00;99.90;;;;;;12451285;28;20184;-84
2021/03/07 10:17:09;;;;;;;3.22;1.67;;;3.90;99.90;;;;;;12458557;28;20056;-84
2021/03/07 10:23:12;;;;;;;5.05;1.80;;;3.90;99.90;;;;;;12457295;28;20038;-83
2021/03/07 10:29:28;;;;;;;3.33;2.17;;;4.10;99.90;;;;;;12442525;28;20085;-83
2021/03/07 10:35:29;;;;;;;5.68;2.03;;;4.20;99.90;;;;;;12445765;28;20046;-82
2021/03/07 10:41:31;;;;;;;2.65;1.27;;;4.10;99.90;;;;;;12443042;28;20109;-83
2021/03/07 10:47:33;;;;;;;4.80;1.60;;;4.00;99.90;;;;;;12442107;28;20136;-83
2021/03/07 10:53:34;;;;;;;5.65;1.60;;;4.00;99.90;;;;;;12457670;28;20045;-83
2021/03/07 10:59:37;;;;;;;4.00;1.50;;;3.90;99.90;;;;;;12443765;28;20704;-83
2021/03/07 11:05:41;;;;;;;4.60;1.95;;;4.00;99.90;;;;;;12432517;28;20061;-83
2021/03/07 11:11:43;;;;;;;4.43;1.80;;;4.10;99.90;;;;;;12442037;28;20094;-84
2021/03/07 11:17:45;;;;;;;4.45;1.55;;;4.20;99.90;;;;;;12438057;28;20102;-84
2021/03/07 11:23:46;;;;;;;3.90;1.40;;;4.30;99.90;;;;;;12444821;28;20045;-84
2021/03/07 11:29:47;;;;;;;4.00;1.52;;;4.20;99.90;;;;;;12442745;28;20064;-83
2021/03/07 11:35:50;;;;;;;4.32;1.30;;;3.90;99.90;;;;;;12444761;28;20037;-83
2021/03/07 11:41:52;;;;;;;4.05;1.58;;;3.90;99.90;;;;;;12451377;28;20091;-84
2021/03/07 11:47:53;;;;;;;5.32;1.70;;;3.90;99.90;;;;;;12448565;28;20116;-83
2021/03/07 11:53:54;;;;;;;3.72;1.83;;;4.00;99.90;;;;;;12451213;28;20064;-83
2021/03/07 12:02:06;;;;;;;7.93;1.85;;;3.80;99.90;;;;;;12649559;27;937024;-83
2021/03/07 12:08:08;;;;;;;4.03;1.88;;;3.90;99.90;;;;;;12628143;28;21162;-84
2021/03/07 12:14:09;;;;;;;4.53;2.05;;;3.80;99.90;;;;;;12617884;28;20052;-84
2021/03/07 12:20:11;;;;;;;6.38;2.30;;;3.70;99.90;;;;;;12619860;28;20041;-83
2021/03/07 12:26:12;;;;;;;4.70;2.17;;;3.80;99.90;;;;;;12619567;28;20055;-83
2021/03/07 12:32:14;;;;;;;4.45;2.53;;;4.10;99.90;;;;;;12609707;28;20070;-84
2021/03/07 12:38:16;;;;;;;5.93;2.13;;;4.40;99.90;;;;;;12611667;28;20056;-84
2021/03/07 12:44:20;;;;;;;5.95;2.78;;;4.50;99.90;;;;;;12614611;28;20123;-84
2021/03/07 12:50:21;;;;;;;9.07;2.67;;;4.40;99.90;;;;;;12615322;28;20048;-84
2021/03/07 12:56:22;;;;;;;4.88;2.80;;;4.40;99.90;;;;;;12613947;28;20511;-84
2021/03/07 13:02:24;;;;;;;5.47;2.88;;;4.50;99.90;;;;;;12618083;28;20051;-84
2021/03/07 13:08:25;;;;;;;6.38;3.40;;;4.60;99.90;;;;;;12605953;28;20097;-84
2021/03/07 13:14:26;;;;;;;5.90;3.40;;;4.80;99.90;;;;;;12578844;28;20103;-84
2021/03/07 13:20:28;;;;;;;8.25;3.97;;;5.00;99.90;;;;;;12540836;28;20071;-84
2021/03/07 13:26:29;;;;;;;6.78;3.90;;;5.20;99.90;;;;;;12587341;28;20138;-84
2021/03/07 13:32:31;;;;;;;5.75;3.88;;;5.20;99.90;;;;;;12572701;28;20036;-84
2021/03/07 13:38:35;;;;;;;8.73;4.57;;;5.20;99.90;;;;;;12580764;28;20044;-84
2021/03/07 13:44:37;;;;;;;7.53;4.23;;;5.50;99.90;;;;;;12578191;28;20640;-84
2021/03/07 13:50:38;;;;;;;5.90;3.65;;;5.80;99.90;;;;;;12575717;28;20560;-84
2021/03/07 13:56:41;;;;;;;5.50;3.70;;;5.50;99.90;;;;;;12575329;28;20174;-84
2021/03/07 14:02:43;;;;;;;5.82;3.28;;;5.50;99.90;;;;;;12572559;28;20544;-84
2021/03/07 14:08:44;;;;;;;6.15;3.22;;;5.50;99.90;;;;;;12575637;28;20048;-84
2021/03/07 14:14:45;;;;;;;8.82;3.90;;;5.60;99.90;;;;;;12578298;28;20135;-84
2021/03/07 14:20:47;;;;;;;4.40;3.03;;;5.50;99.90;;;;;;12568216;28;20711;-84
2021/03/07 14:26:48;;;;;;;5.40;3.40;;;5.60;99.90;;;;;;12576705;28;20135;-84
2021/03/07 14:32:49;;;;;;;5.95;2.90;;;5.70;99.90;;;;;;12577579;28;20100;-84
2021/03/07 14:38:51;;;;;;;6.68;3.08;;;5.40;99.90;;;;;;12566396;28;20178;-84
2021/03/07 14:44:53;;;;;;;7.90;3.70;;;5.30;99.90;;;;;;12569496;28;20041;-84
2021/03/07 14:50:54;;;;;;;5.28;3.42;;;5.20;99.90;;;;;;12542169;28;20127;-84
2021/03/07 14:56:56;;;;;;;7.57;3.28;;;5.30;99.90;;;;;;12542797;28;20044;-84
2021/03/07 15:02:57;;;;;;;7.93;3.13;;;5.20;99.90;;;;;;12547516;28;20136;-84
2021/03/07 15:09:00;;;;;;;9.45;3.83;;;5.20;99.90;;;;;;12568642;28;20105;-84
2021/03/07 15:15:02;;;;;;;9.63;4.50;;;5.10;99.90;;;;;;12572361;28;20044;-84
2021/03/07 15:21:04;;;;;;;7.13;3.50;;;5.00;99.90;;;;;;12572562;28;20060;-84
2021/03/07 15:27:06;;;;;;;9.13;4.40;;;5.00;99.90;;;;;;12570059;28;20139;-85
2021/03/07 15:33:08;;;;;;;7.43;4.60;;;4.80;99.90;;;;;;12566477;28;20041;-84
2021/03/07 15:39:09;;;;;;;10.98;5.25;;;4.90;99.90;;;;;;12566441;28;20040;-84
2021/03/07 15:45:12;;;;;;;8.90;5.20;;;4.80;99.90;;;;;;12567185;28;20170;-84
2021/03/07 15:51:13;;;;;;;11.80;5.82;;;4.80;99.90;;;;;;12567586;28;20698;-84
2021/03/07 15:57:14;;;;;;;9.95;5.85;;;4.60;99.90;;;;;;12558732;28;20099;-84
2021/03/07 16:03:16;;;;;;;11.85;5.82;;;4.60;99.90;;;;;;12567215;28;20355;-84
2021/03/07 16:09:17;;;;;;;10.13;6.25;;;4.60;99.90;;;;;;12568816;28;20481;-84
2021/03/07 16:15:21;;;;;;;11.75;6.90;;;4.70;99.90;;;;;;12571622;28;20134;-84
2021/03/07 16:21:24;;;;;;;11.35;6.88;;;4.50;99.90;;;;;;12573978;28;20182;-83
2021/03/07 16:27:25;;;;;;;13.18;7.18;;;4.60;99.90;;;;;;12572743;28;20114;-84
2021/03/07 16:33:27;;;;;;;15.57;8.00;;;4.60;99.90;;;;;;12564332;28;20098;-84
2021/03/07 16:39:28;;;;;;;15.63;8.57;;;4.50;99.90;;;;;;12567659;28;20048;-84
2021/03/07 16:45:30;;;;;;;11.45;7.35;;;4.40;99.90;;;;;;12575122;28;20068;-84
2021/03/07 16:51:31;;;;;;;14.23;8.02;;;4.30;99.90;;;;;;12574900;28;20131;-84
2021/03/07 16:57:32;;;;;;;12.75;7.90;;;4.40;99.90;;;;;;12581191;28;20055;-84
2021/03/07 17:03:34;;;;;;;13.20;7.45;;;4.40;99.90;;;;;;12588800;28;20178;-84
2021/03/07 17:09:36;;;;;;;13.43;7.35;;;4.40;99.90;;;;;;12573949;28;20757;-84
2021/03/07 17:15:37;;;;;;;15.57;8.68;;;4.30;99.90;;;;;;12575286;28;20040;-84
2021/03/07 17:21:39;;;;;;;15.75;9.60;;;4.20;99.90;;;;;;12576289;28;20040;-84
2021/03/07 17:27:41;;;;;;;19.23;9.40;;;4.20;99.90;;;;;;12570568;28;20052;-84
2021/03/07 17:33:42;;;;;;;15.63;9.63;;;4.20;99.90;;;;;;12572844;28;20087;-83
2021/03/07 17:39:44;;;;;;;17.75;9.65;;;4.10;99.90;;;;;;12571435;28;20076;-83
2021/03/07 17:45:46;;;;;;;15.45;8.88;;;4.10;99.90;;;;;;12567341;28;20636;-82
2021/03/07 17:51:47;;;;;;;20.90;9.48;;;4.10;99.90;;;;;;12570851;28;20048;-83
2021/03/07 17:57:49;;;;;;;15.35;9.50;;;4.00;99.90;;;;;;12572916;28;20052;-83
2021/03/07 18:03:50;;;;;;;16.67;9.80;;;4.00;99.90;;;;;;12573223;28;20206;-83
2021/03/07 18:09:52;;;;;;;20.67;9.73;;;4.10;99.90;;;;;;12576047;28;20116;-83
2021/03/07 18:15:54;;;;;;;17.45;10.00;;;4.10;99.90;;;;;;12572285;28;20135;-83
2021/03/07 18:21:56;;;;;;;15.95;9.20;;;4.10;99.90;;;;;;12566342;28;20044;-83
2021/03/07 18:28:10;;;;;;;19.30;10.98;;;4.00;99.90;;;;;;12564493;28;20063;-83
2021/03/07 18:34:11;;;;;;;15.55;10.10;;;4.00;99.90;;;;;;12579442;28;20040;-83
2021/03/07 18:40:13;;;;;;;18.42;11.27;;;4.10;99.90;;;;;;12572246;28;20057;-83
2021/03/07 18:46:15;;;;;;;20.52;11.38;;;3.90;99.90;;;;;;12575557;28;20537;-83
2021/03/07 18:52:16;;;;;;;16.77;10.30;;;3.90;99.90;;;;;;12567270;28;20412;-83
2021/03/07 18:58:31;;;;;;;17.02;10.45;;;3.90;99.90;;;;;;12570263;28;20049;-82
2021/03/07 19:04:32;;;;;;;20.02;10.88;;;3.90;99.90;;;;;;12574209;28;20061;-82
2021/03/07 19:10:35;;;;;;;17.73;10.65;;;3.90;99.90;;;;;;12551192;28;20045;-83
2021/03/07 19:16:37;;;;;;;18.92;10.70;;;3.90;99.90;;;;;;12565945;28;20158;-82
2021/03/07 19:22:40;;;;;;;18.85;10.73;;;3.80;99.90;;;;;;12572788;28;20101;-81
2021/03/07 19:28:54;;;;;;;19.13;10.60;;;3.80;99.90;;;;;;12571868;28;20516;-83
2021/03/07 19:34:56;;;;;;;18.05;10.23;;;3.90;99.90;;;;;;12565311;28;20045;-83
2021/03/07 19:40:57;;;;;;;16.83;10.27;;;3.80;99.90;;;;;;12563570;28;20048;-83
2021/03/07 19:47:01;;;;;;;20.90;10.80;;;3.80;99.90;;;;;;12569350;28;20205;-83
2021/03/07 19:53:02;;;;;;;21.20;10.70;;;3.90;99.90;;;;;;12568607;28;20040;-83
2021/03/07 19:59:22;;;;;;;18.85;11.52;;;4.00;99.90;;;;;;12576582;28;20420;-83
2021/03/07 20:05:23;;;;;;;19.42;11.48;;;3.80;99.90;;;;;;12580624;28;20099;-83
2021/03/07 20:11:25;;;;;;;18.65;11.02;;;3.90;99.90;;;;;;12574694;28;20127;-83
2021/03/07 20:17:29;;;;;;;18.45;10.90;;;3.90;99.90;;;;;;12574269;28;20052;-83
2021/03/07 20:23:31;;;;;;;18.40;10.85;;;3.90;99.90;;;;;;12582556;28;20056;-83
2021/03/07 20:29:44;;;;;;;20.55;11.85;;;3.80;99.90;;;;;;12583057;28;20059;-83
2021/03/07 20:35:46;;;;;;;18.33;11.57;;;3.70;99.90;;;;;;12575385;28;20048;-83
2021/03/07 20:41:48;;;;;;;26.15;12.80;;;3.30;99.90;;;;;;12578154;28;20048;-83
2021/03/07 20:47:50;;;;;;;21.27;12.02;;;3.40;99.90;;;;;;12584070;28;20048;-83
2021/03/07 20:53:51;;;;;;;21.73;13.15;;;3.80;99.90;;;;;;12579149;28;20491;-83
2021/03/07 21:00:14;;;;;;;21.38;12.75;;;3.80;99.90;;;;;;12571665;28;20088;-83
2021/03/07 21:06:15;;;;;;;23.88;13.70;;;3.80;99.90;;;;;;12583108;28;20672;-83
2021/03/07 21:12:16;;;;;;;22.75;13.40;;;3.70;99.90;;;;;;12574936;28;20045;-83
2021/03/07 21:18:17;;;;;;;23.02;13.85;;;3.80;99.90;;;;;;12581086;28;20116;-82
2021/03/07 21:24:19;;;;;;;26.38;14.30;;;3.70;99.90;;;;;;12575642;28;20531;-83
2021/03/07 21:30:31;;;;;;;27.27;14.65;;;3.50;99.90;;;;;;12581802;28;20124;-83
2021/03/07 21:36:32;;;;;;;26.85;14.77;;;3.70;99.90;;;;;;12578305;28;20068;-83
2021/03/07 21:42:34;;;;;;;28.23;15.70;;;3.70;99.90;;;;;;12580333;28;20048;-83
2021/03/07 21:48:35;;;;;;;32.10;16.15;;;3.70;99.90;;;;;;12585647;28;20139;-83
2021/03/07 21:54:37;;;;;;;32.20;17.08;;;3.70;99.90;;;;;;12582525;28;20123;-83
2021/03/07 22:00:51;;;;;;;33.28;17.17;;;3.60;99.90;;;;;;12584791;28;20062;-83
2021/03/07 22:06:53;;;;;;;32.85;17.17;;;3.70;99.90;;;;;;12583746;28;20532;-83
2021/03/07 22:12:58;;;;;;;33.38;17.83;;;3.70;99.90;;;;;;12575566;28;20045;-83
2021/03/07 22:19:00;;;;;;;37.08;17.77;;;3.70;99.90;;;;;;12576330;28;20559;-83
2021/03/07 22:25:03;;;;;;;35.35;18.23;;;3.70;99.90;;;;;;12571281;28;20040;-83
2021/03/07 22:31:16;;;;;;;37.25;18.73;;;3.60;99.90;;;;;;12573090;28;20100;-83
2021/03/07 22:37:17;;;;;;;34.03;18.58;;;3.60;99.90;;;;;;12575030;28;20542;-83
2021/03/07 22:43:19;;;;;;;35.63;18.48;;;3.60;99.90;;;;;;12573013;28;20091;-83
2021/03/07 22:49:20;;;;;;;35.28;19.30;;;3.60;99.90;;;;;;12575696;28;20048;-83
2021/03/07 22:55:21;;;;;;;34.53;18.23;;;3.60;99.90;;;;;;12578759;28;20066;-83
2021/03/07 23:01:37;;;;;;;35.30;19.17;;;3.50;99.90;;;;;;12577419;28;20070;-85
2021/03/07 23:07:39;;;;;;;40.53;20.30;;;3.50;99.90;;;;;;12579453;28;20033;-84
2021/03/07 23:13:40;;;;;;;36.42;20.15;;;3.40;99.90;;;;;;12581150;28;20432;-85
2021/03/07 23:19:41;;;;;;;37.03;19.38;;;3.50;99.90;;;;;;12578826;28;20139;-85
2021/03/07 23:25:43;;;;;;;45.75;21.02;;;3.50;99.90;;;;;;12579786;28;20113;-84
2021/03/07 23:32:00;;;;;;;37.50;19.27;;;3.50;99.90;;;;;;12569162;28;20104;-84
2021/03/07 23:38:02;;;;;;;36.92;20.00;;;3.60;99.90;;;;;;12580688;28;20051;-85
2021/03/07 23:44:04;;;;;;;36.67;20.05;;;3.60;99.90;;;;;;12574788;28;20064;-85
2021/03/07 23:50:07;;;;;;;40.53;20.45;;;3.60;99.90;;;;;;12582783;28;20124;-84
2021/03/07 23:56:08;;;;;;;42.75;21.40;;;3.60;99.90;;;;;;12567382;28;20049;-84
